Time;durP1;ratioP1;P1;durP2;ratioP2;P2;SDS_P1;SDS_P2;PMS_P1;PMS_P2;Temp;Humidity;BMP_temperature;BMP_pressure;BME280_temperature;BME280_humidity;BME280_pressure;Samples;Min_cycle;Max_cycle;Signal;HPM_P1;HPM_P2
2023/12/29 00:00:34;;;;;;;6.90;1.60;;;;;;;;;;5095892;28;20182;-59
2023/12/29 00:03:00;;;;;;;9.30;2.37;;;;;;;;;;5094908;28;20258;-53
2023/12/29 00:05:27;;;;;;;9.07;1.90;;;;;;;;;;5095747;28;20192;-55
2023/12/29 00:07:53;;;;;;;14.93;2.80;;;;;;;;;;5094206;28;20308;-50
2023/12/29 00:10:19;;;;;;;9.73;2.13;;;;;;;;;;5093990;28;20179;-54
2023/12/29 00:12:45;;;;;;;10.57;2.20;;;;;;;;;;5093308;28;20433;-55
2023/12/29 00:15:11;;;;;;;11.33;2.37;;;;;;;;;;5093849;28;20340;-55
2023/12/29 00:17:39;;;;;;;13.50;2.47;;;;;;;;;;5094644;28;20168;-54
2023/12/29 00:20:08;;;;;;;9.63;2.87;;;;;;;;;;5095132;28;20187;-54
2023/12/29 00:22:34;;;;;;;8.70;2.40;;;;;;;;;;5095202;28;20544;-52
2023/12/29 00:25:02;;;;;;;8.93;2.67;;;;;;;;;;5095824;28;20168;-56
2023/12/29 00:27:29;;;;;;;8.93;2.30;;;;;;;;;;5095949;28;20172;-53
2023/12/29 00:30:04;;;;;;;7.30;2.63;;;;;;;;;;5096625;28;20168;-52
2023/12/29 00:32:30;;;;;;;10.03;2.63;;;;;;;;;;5095957;28;20179;-55
2023/12/29 00:34:57;;;;;;;3.70;1.87;;;;;;;;;;5096734;28;20176;-53
2023/12/29 00:37:23;;;;;;;9.73;2.87;;;;;;;;;;5096765;28;20528;-54
2023/12/29 00:39:49;;;;;;;11.13;2.77;;;;;;;;;;5096112;28;20286;-55
2023/12/29 00:42:16;;;;;;;12.47;3.47;;;;;;;;;;5095566;28;20203;-54
2023/12/29 00:44:42;;;;;;;6.20;2.43;;;;;;;;;;5095736;28;20202;-54
2023/12/29 00:47:08;;;;;;;9.07;3.00;;;;;;;;;;5095668;28;20239;-50
2023/12/29 00:49:34;;;;;;;6.87;2.70;;;;;;;;;;5095557;28;20692;-53
2023/12/29 00:52:02;;;;;;;9.23;2.60;;;;;;;;;;5096466;28;20172;-51
2023/12/29 00:54:28;;;;;;;9.50;2.90;;;;;;;;;;5095349;28;20215;-51
2023/12/29 00:56:54;;;;;;;9.37;2.77;;;;;;;;;;5095143;28;20540;-55
2023/12/29 00:59:20;;;;;;;9.27;3.40;;;;;;;;;;5096711;28;20172;-52
2023/12/29 01:01:46;;;;;;;12.83;3.00;;;;;;;;;;5095783;28;20175;-51
2023/12/29 01:04:12;;;;;;;9.83;3.13;;;;;;;;;;5095898;28;20275;-53
2023/12/29 01:06:40;;;;;;;8.27;2.57;;;;;;;;;;5095255;28;20570;-51
2023/12/29 01:09:08;;;;;;;12.07;3.07;;;;;;;;;;5096431;28;20164;-53
2023/12/29 01:11:35;;;;;;;13.67;2.80;;;;;;;;;;5095411;28;20540;-55
2023/12/29 01:14:01;;;;;;;7.07;2.60;;;;;;;;;;5095662;28;20199;-55
2023/12/29 01:16:29;;;;;;;9.53;2.40;;;;;;;;;;5095980;28;20207;-54
2023/12/29 01:18:54;;;;;;;6.17;2.17;;;;;;;;;;5096384;28;20219;-51
2023/12/29 01:21:20;;;;;;;6.73;2.53;;;;;;;;;;5095708;28;20176;-55
2023/12/29 01:23:48;;;;;;;10.40;2.53;;;;;;;;;;5096437;28;20179;-50
2023/12/29 01:26:15;;;;;;;11.10;3.30;;;;;;;;;;5095977;28;20274;-55
2023/12/29 01:28:42;;;;;;;8.43;2.70;;;;;;;;;;5094797;28;20176;-53
2023/12/29 01:31:08;;;;;;;8.43;2.50;;;;;;;;;;5094410;28;20183;-53
2023/12/29 01:33:35;;;;;;;8.00;2.40;;;;;;;;;;5094693;28;20160;-52
2023/12/29 01:36:02;;;;;;;8.20;2.67;;;;;;;;;;5095080;28;20188;-55
2023/12/29 01:38:30;;;;;;;7.67;2.40;;;;;;;;;;5095081;28;20176;-55
2023/12/29 01:40:57;;;;;;;9.00;3.10;;;;;;;;;;5095931;28;20199;-53
2023/12/29 01:43:23;;;;;;;10.53;2.90;;;;;;;;;;5095089;28;20635;-55
2023/12/29 01:45:51;;;;;;;11.40;3.93;;;;;;;;;;5098038;28;20203;-55
2023/12/29 01:48:18;;;;;;;12.27;3.00;;;;;;;;;;5098231;28;20232;-52
2023/12/29 01:50:45;;;;;;;9.10;2.73;;;;;;;;;;5098971;28;20179;-50
2023/12/29 01:53:12;;;;;;;14.50;2.77;;;;;;;;;;5099575;28;20172;-53
2023/12/29 01:55:38;;;;;;;11.30;2.17;;;;;;;;;;5097860;28;20705;-55
2023/12/29 01:58:04;;;;;;;7.57;3.57;;;;;;;;;;5097485;28;20180;-56
2023/12/29 02:00:31;;;;;;;7.70;3.67;;;;;;;;;;5097513;28;20186;-52
2023/12/29 02:02:59;;;;;;;12.03;2.53;;;;;;;;;;5097046;28;20184;-54
2023/12/29 02:05:26;;;;;;;11.23;2.37;;;;;;;;;;5099006;28;20242;-51
2023/12/29 02:07:53;;;;;;;6.33;2.30;;;;;;;;;;5098514;28;20168;-56
2023/12/29 02:10:19;;;;;;;7.00;2.27;;;;;;;;;;5095723;28;20270;-55
2023/12/29 02:12:47;;;;;;;13.50;3.27;;;;;;;;;;5096234;28;20251;-54
2023/12/29 02:15:13;;;;;;;8.20;3.10;;;;;;;;;;5097083;28;20431;-52
2023/12/29 02:17:42;;;;;;;11.17;4.17;;;;;;;;;;5098739;28;20172;-53
2023/12/29 02:20:08;;;;;;;11.17;2.57;;;;;;;;;;5098612;28;20216;-52
2023/12/29 02:22:34;;;;;;;12.90;3.63;;;;;;;;;;5098429;28;20259;-53
2023/12/29 02:25:00;;;;;;;7.60;2.43;;;;;;;;;;5098381;28;20588;-54
2023/12/29 02:27:47;;;;;;;6.17;2.17;;;;;;;;;;5098641;28;20236;-52
2023/12/29 02:30:21;;;;;;;11.40;2.60;;;;;;;;;;5098394;28;20168;-52
2023/12/29 02:32:48;;;;;;;11.00;2.40;;;;;;;;;;5098320;28;20174;-52
2023/12/29 02:35:16;;;;;;;12.57;2.70;;;;;;;;;;5098382;28;20532;-51
2023/12/29 02:37:42;;;;;;;8.87;2.50;;;;;;;;;;5098075;28;20237;-55
2023/12/29 02:40:09;;;;;;;5.57;2.13;;;;;;;;;;5097932;28;20241;-53
2023/12/29 02:42:34;;;;;;;6.63;2.77;;;;;;;;;;5098362;28;20633;-54
2023/12/29 02:45:00;;;;;;;6.07;2.40;;;;;;;;;;5098929;28;20722;-55
2023/12/29 02:47:27;;;;;;;8.20;2.13;;;;;;;;;;5097729;28;20532;-52
2023/12/29 02:49:54;;;;;;;7.40;1.83;;;;;;;;;;5099044;28;20164;-54
2023/12/29 02:52:20;;;;;;;7.17;1.43;;;;;;;;;;5098648;28;20149;-55
2023/12/29 02:54:46;;;;;;;6.97;2.00;;;;;;;;;;4932490;28;4709066;-55
2023/12/29 02:57:12;;;;;;;5.43;1.77;;;;;;;;;;5089655;28;20172;-53
2023/12/29 02:59:38;;;;;;;10.43;1.70;;;;;;;;;;5099411;28;20552;-53
2023/12/29 03:02:04;;;;;;;5.60;1.80;;;;;;;;;;5099172;28;20192;-52
2023/12/29 03:04:30;;;;;;;5.17;2.10;;;;;;;;;;5099708;28;20160;-52
2023/12/29 03:06:56;;;;;;;12.10;2.40;;;;;;;;;;5099671;28;20216;-49
2023/12/29 03:09:21;;;;;;;4.90;1.57;;;;;;;;;;5099993;28;20199;-54
2023/12/29 03:11:47;;;;;;;6.83;1.30;;;;;;;;;;5098922;28;20219;-54
2023/12/29 03:14:15;;;;;;;7.37;2.53;;;;;;;;;;5098840;28;20196;-51
2023/12/29 03:16:41;;;;;;;3.30;1.40;;;;;;;;;;5098835;28;20256;-54
2023/12/29 03:19:07;;;;;;;8.40;1.97;;;;;;;;;;5099231;28;20536;-51
2023/12/29 03:21:33;;;;;;;8.70;1.83;;;;;;;;;;5098528;28;20160;-54
2023/12/29 03:23:59;;;;;;;10.43;1.70;;;;;;;;;;5098779;28;20217;-50
2023/12/29 03:26:25;;;;;;;7.17;1.63;;;;;;;;;;5097930;28;20544;-51
2023/12/29 03:28:51;;;;;;;9.40;1.67;;;;;;;;;;5097787;28;20226;-50
2023/12/29 03:31:17;;;;;;;6.87;1.57;;;;;;;;;;5097986;28;20192;-50
2023/12/29 03:33:43;;;;;;;3.53;1.43;;;;;;;;;;5097146;28;20160;-52
2023/12/29 03:36:09;;;;;;;6.60;1.43;;;;;;;;;;5096761;28;20183;-54
2023/12/29 03:38:36;;;;;;;4.87;1.73;;;;;;;;;;5097846;28;20721;-51
2023/12/29 03:41:02;;;;;;;5.93;1.60;;;;;;;;;;5097528;28;20786;-52
2023/12/29 03:43:28;;;;;;;4.00;0.97;;;;;;;;;;5096589;28;20683;-52
2023/12/29 03:45:54;;;;;;;8.63;1.63;;;;;;;;;;5096759;28;20207;-53
2023/12/29 03:48:20;;;;;;;7.27;1.80;;;;;;;;;;5096606;28;20178;-52
2023/12/29 03:50:46;;;;;;;5.63;1.60;;;;;;;;;;5097719;28;20164;-50
2023/12/29 03:53:11;;;;;;;4.97;1.37;;;;;;;;;;5097161;28;20172;-51
2023/12/29 03:55:37;;;;;;;4.23;1.20;;;;;;;;;;5096808;28;20219;-52
2023/12/29 03:58:03;;;;;;;4.63;1.53;;;;;;;;;;5097133;28;20206;-54
2023/12/29 04:00:29;;;;;;;4.67;1.30;;;;;;;;;;5097431;28;20160;-52
2023/12/29 04:02:55;;;;;;;5.17;1.80;;;;;;;;;;5096852;28;20183;-48
2023/12/29 04:05:21;;;;;;;4.50;1.40;;;;;;;;;;5097228;28;20258;-53
2023/12/29 04:07:47;;;;;;;2.10;1.00;;;;;;;;;;5096351;28;20254;-51
2023/12/29 04:10:13;;;;;;;7.37;1.60;;;;;;;;;;5098135;28;20556;-49
2023/12/29 04:12:39;;;;;;;4.67;2.17;;;;;;;;;;5097183;28;20152;-50
2023/12/29 04:15:05;;;;;;;4.70;1.83;;;;;;;;;;5095646;28;20448;-53
2023/12/29 04:17:31;;;;;;;5.17;1.30;;;;;;;;;;5097249;28;20180;-50
2023/12/29 04:19:57;;;;;;;2.03;0.77;;;;;;;;;;5097655;28;20160;-50
2023/12/29 04:22:23;;;;;;;2.67;0.70;;;;;;;;;;5096667;28;20179;-53
2023/12/29 04:24:49;;;;;;;2.00;0.80;;;;;;;;;;5097038;28;20515;-55
2023/12/29 04:27:15;;;;;;;2.23;0.80;;;;;;;;;;5096467;28;20196;-53
2023/12/29 04:29:41;;;;;;;3.70;0.93;;;;;;;;;;5096328;28;20176;-51
2023/12/29 04:32:07;;;;;;;3.93;0.67;;;;;;;;;;5096544;28;20172;-51
2023/12/29 04:34:33;;;;;;;1.80;0.80;;;;;;;;;;5096129;28;20172;-50
2023/12/29 04:36:59;;;;;;;2.50;0.93;;;;;;;;;;5096037;28;20172;-51
2023/12/29 04:39:25;;;;;;;1.33;0.70;;;;;;;;;;5096005;28;20611;-53
2023/12/29 04:41:51;;;;;;;2.33;0.63;;;;;;;;;;5096973;28;20234;-54
2023/12/29 04:44:17;;;;;;;2.47;0.73;;;;;;;;;;5096000;28;20198;-53
2023/12/29 04:46:43;;;;;;;3.70;0.70;;;;;;;;;;5095764;28;20211;-52
2023/12/29 04:49:09;;;;;;;6.27;1.63;;;;;;;;;;5095815;28;20552;-51
2023/12/29 04:51:35;;;;;;;2.60;1.03;;;;;;;;;;5096247;28;20229;-53
2023/12/29 04:54:01;;;;;;;6.37;0.77;;;;;;;;;;5097071;28;20152;-50
2023/12/29 04:56:27;;;;;;;3.23;0.93;;;;;;;;;;5095713;28;20173;-53
2023/12/29 04:58:53;;;;;;;7.03;1.20;;;;;;;;;;5095835;28;20442;-51
2023/12/29 05:01:19;;;;;;;5.70;1.00;;;;;;;;;;5095179;28;20781;-55
2023/12/29 05:03:44;;;;;;;5.80;1.33;;;;;;;;;;5096730;28;20176;-51
2023/12/29 05:06:10;;;;;;;10.33;1.37;;;;;;;;;;5095299;28;20206;-51
2023/12/29 05:08:36;;;;;;;3.17;1.17;;;;;;;;;;5096189;28;20272;-54
2023/12/29 05:11:02;;;;;;;5.23;1.13;;;;;;;;;;5095170;28;20179;-48
2023/12/29 05:13:29;;;;;;;4.53;1.23;;;;;;;;;;5094808;28;20168;-55
2023/12/29 05:15:55;;;;;;;5.47;1.70;;;;;;;;;;5093936;28;20617;-53
2023/12/29 05:18:21;;;;;;;9.80;1.87;;;;;;;;;;5095017;28;20262;-52
2023/12/29 05:20:47;;;;;;;4.17;1.60;;;;;;;;;;5094920;28;20305;-49
2023/12/29 05:23:13;;;;;;;5.53;1.70;;;;;;;;;;5094109;28;20754;-53
2023/12/29 05:25:39;;;;;;;6.63;1.37;;;;;;;;;;5094560;28;20768;-53
2023/12/29 05:28:05;;;;;;;4.07;1.50;;;;;;;;;;5095164;28;20450;-50
2023/12/29 05:30:32;;;;;;;5.70;1.30;;;;;;;;;;5095245;28;20258;-52
2023/12/29 05:32:58;;;;;;;3.23;1.30;;;;;;;;;;5096305;28;20448;-54
2023/12/29 05:35:24;;;;;;;7.07;1.80;;;;;;;;;;5095298;28;20176;-52
2023/12/29 05:37:50;;;;;;;2.57;1.00;;;;;;;;;;5095897;28;20221;-54
2023/12/29 05:40:16;;;;;;;7.40;1.63;;;;;;;;;;5095218;28;20178;-52
2023/12/29 05:42:42;;;;;;;4.53;1.40;;;;;;;;;;5095446;28;20182;-52
2023/12/29 05:45:09;;;;;;;4.27;1.20;;;;;;;;;;5095544;28;20170;-53
2023/12/29 05:47:35;;;;;;;4.97;1.17;;;;;;;;;;5095899;28;20210;-53
2023/12/29 05:50:00;;;;;;;2.90;1.10;;;;;;;;;;5096064;28;20274;-51
2023/12/29 05:52:26;;;;;;;6.10;1.50;;;;;;;;;;5095465;28;20455;-51
2023/12/29 05:54:53;;;;;;;6.50;1.53;;;;;;;;;;5095478;28;20284;-55
2023/12/29 05:57:18;;;;;;;3.70;1.13;;;;;;;;;;5095990;28;20176;-56
2023/12/29 05:59:45;;;;;;;6.20;1.07;;;;;;;;;;5097198;28;20179;-51
2023/12/29 06:02:11;;;;;;;5.60;1.20;;;;;;;;;;5096009;28;20176;-54
2023/12/29 06:04:36;;;;;;;4.27;1.27;;;;;;;;;;5095874;28;20199;-53
2023/12/29 06:07:02;;;;;;;4.23;1.00;;;;;;;;;;5097101;28;20200;-52
2023/12/29 06:09:28;;;;;;;5.60;1.60;;;;;;;;;;5095979;28;20164;-50
2023/12/29 06:11:54;;;;;;;4.70;1.50;;;;;;;;;;5096443;28;20187;-53
2023/12/29 06:14:20;;;;;;;3.33;1.40;;;;;;;;;;5096558;28;20173;-52
2023/12/29 06:16:46;;;;;;;10.13;1.40;;;;;;;;;;5096604;28;20180;-55
2023/12/29 06:19:12;;;;;;;7.73;1.80;;;;;;;;;;5095736;28;20211;-52
2023/12/29 06:21:45;;;;;;;6.13;1.40;;;;;;;;;;5095338;28;20188;-51
2023/12/29 06:24:11;;;;;;;7.60;1.87;;;;;;;;;;5096207;28;20172;-51
2023/12/29 06:26:42;;;;;;;7.47;1.77;;;;;;;;;;5094845;28;20238;-53
2023/12/29 06:29:08;;;;;;;5.67;1.70;;;;;;;;;;5096125;28;20255;-55
2023/12/29 06:31:34;;;;;;;5.40;1.93;;;;;;;;;;5098012;28;20274;-50
2023/12/29 06:34:03;;;;;;;4.63;1.60;;;;;;;;;;5099825;28;20199;-52
2023/12/29 06:36:29;;;;;;;7.00;2.00;;;;;;;;;;5098858;28;20164;-52
2023/12/29 06:38:56;;;;;;;6.97;1.80;;;;;;;;;;5098536;28;20427;-55
2023/12/29 06:41:24;;;;;;;11.63;2.27;;;;;;;;;;5098916;28;20172;-51
2023/12/29 06:43:51;;;;;;;12.00;2.87;;;;;;;;;;5098410;28;20176;-49
2023/12/29 06:46:17;;;;;;;10.60;2.60;;;;;;;;;;5098721;28;20207;-54
2023/12/29 06:48:44;;;;;;;7.00;2.40;;;;;;;;;;5097979;28;20176;-54
2023/12/29 06:51:11;;;;;;;5.90;2.70;;;;;;;;;;5098547;28;20172;-52
2023/12/29 06:53:37;;;;;;;8.30;2.90;;;;;;;;;;5095564;28;20172;-49
2023/12/29 06:56:04;;;;;;;11.57;3.63;;;;;;;;;;5094724;28;20228;-53
2023/12/29 06:58:31;;;;;;;5.50;2.77;;;;;;;;;;5094878;28;20200;-55
2023/12/29 07:00:57;;;;;;;7.73;2.37;;;;;;;;;;5092858;28;20178;-53
2023/12/29 07:03:23;;;;;;;12.17;2.97;;;;;;;;;;5092752;28;20275;-50
2023/12/29 07:05:49;;;;;;;15.80;4.10;;;;;;;;;;5092952;28;20199;-55
2023/12/29 07:08:15;;;;;;;14.23;3.70;;;;;;;;;;5092106;28;20225;-54
2023/12/29 07:10:41;;;;;;;12.90;3.00;;;;;;;;;;5091091;28;20190;-49
2023/12/29 07:13:07;;;;;;;11.03;3.00;;;;;;;;;;5090447;28;20168;-53
2023/12/29 07:15:33;;;;;;;7.77;2.63;;;;;;;;;;5094292;28;20570;-53
2023/12/29 07:17:59;;;;;;;13.83;2.60;;;;;;;;;;5096582;28;20265;-51
2023/12/29 07:20:25;;;;;;;14.37;3.53;;;;;;;;;;5095726;28;20655;-50
2023/12/29 07:22:51;;;;;;;11.93;2.73;;;;;;;;;;5094718;28;20164;-53
2023/12/29 07:25:17;;;;;;;12.93;2.80;;;;;;;;;;5096244;28;20164;-52
2023/12/29 07:27:43;;;;;;;8.97;2.50;;;;;;;;;;5094815;28;20210;-48
2023/12/29 07:30:09;;;;;;;18.33;3.13;;;;;;;;;;5095430;28;20202;-54
2023/12/29 07:32:36;;;;;;;14.43;2.90;;;;;;;;;;5094680;28;20217;-53
2023/12/29 07:35:02;;;;;;;11.57;2.87;;;;;;;;;;5094600;28;20556;-53
2023/12/29 07:37:28;;;;;;;16.53;3.47;;;;;;;;;;5096925;28;20165;-54
2023/12/29 07:39:54;;;;;;;16.30;3.23;;;;;;;;;;5094726;28;20175;-50
2023/12/29 07:42:20;;;;;;;10.97;2.13;;;;;;;;;;5094115;28;20194;-49
2023/12/29 07:44:46;;;;;;;10.97;2.53;;;;;;;;;;5096005;28;20172;-53
2023/12/29 07:47:12;;;;;;;10.23;2.67;;;;;;;;;;5095758;28;20249;-51
2023/12/29 07:49:38;;;;;;;11.57;3.77;;;;;;;;;;5095351;28;20172;-54
2023/12/29 07:52:04;;;;;;;13.93;2.60;;;;;;;;;;5094532;28;20462;-52
2023/12/29 07:54:30;;;;;;;10.87;2.57;;;;;;;;;;5097282;28;20216;-50
2023/12/29 07:56:56;;;;;;;8.97;3.17;;;;;;;;;;5098118;28;20190;-54
2023/12/29 07:59:22;;;;;;;11.30;2.60;;;;;;;;;;5095590;28;20176;-50
2023/12/29 08:01:48;;;;;;;14.30;2.87;;;;;;;;;;5095988;28;20176;-54
2023/12/29 08:04:14;;;;;;;14.67;3.30;;;;;;;;;;5096733;28;20176;-50
2023/12/29 08:06:39;;;;;;;10.77;2.83;;;;;;;;;;5096482;28;20234;-50
2023/12/29 08:09:07;;;;;;;13.40;2.47;;;;;;;;;;5095619;28;20783;-53
2023/12/29 08:11:33;;;;;;;12.87;3.00;;;;;;;;;;5094498;28;20627;-50
2023/12/29 08:13:59;;;;;;;16.90;3.37;;;;;;;;;;5093679;28;20231;-54
2023/12/29 08:16:26;;;;;;;20.17;3.23;;;;;;;;;;5094144;28;20501;-55
2023/12/29 08:18:52;;;;;;;19.57;3.93;;;;;;;;;;5094430;28;20180;-50
2023/12/29 08:21:19;;;;;;;7.63;2.53;;;;;;;;;;5095577;28;20255;-53
2023/12/29 08:23:46;;;;;;;13.63;3.40;;;;;;;;;;5094571;28;20286;-51
2023/12/29 08:26:12;;;;;;;14.73;2.70;;;;;;;;;;5094913;28;20235;-54
2023/12/29 08:28:39;;;;;;;13.83;3.07;;;;;;;;;;5093807;28;20225;-52
2023/12/29 08:31:08;;;;;;;10.23;2.87;;;;;;;;;;5093939;28;20211;-51
2023/12/29 08:33:34;;;;;;;10.83;3.30;;;;;;;;;;5093877;28;20571;-55
2023/12/29 08:36:02;;;;;;;13.77;3.20;;;;;;;;;;5094001;28;20237;-54
2023/12/29 08:38:28;;;;;;;11.17;2.80;;;;;;;;;;5093434;28;20262;-53
2023/12/29 08:40:54;;;;;;;14.10;3.03;;;;;;;;;;5093180;28;20206;-52
2023/12/29 08:43:21;;;;;;;13.33;4.13;;;;;;;;;;5093809;28;20211;-56
2023/12/29 08:45:50;;;;;;;10.17;2.03;;;;;;;;;;5093860;28;20199;-52
2023/12/29 08:48:17;;;;;;;10.90;2.87;;;;;;;;;;5093205;28;20179;-52
2023/12/29 08:50:44;;;;;;;12.00;3.00;;;;;;;;;;5093025;28;20172;-53
2023/12/29 08:53:10;;;;;;;16.83;2.37;;;;;;;;;;5092121;28;20164;-53
2023/12/29 08:55:36;;;;;;;13.77;2.87;;;;;;;;;;5090962;28;20482;-54
2023/12/29 08:58:02;;;;;;;12.80;2.83;;;;;;;;;;5090603;28;20172;-53
2023/12/29 09:00:31;;;;;;;10.67;2.80;;;;;;;;;;5092736;28;20190;-54
2023/12/29 09:02:58;;;;;;;12.40;3.30;;;;;;;;;;5093168;28;20168;-53
2023/12/29 09:05:23;;;;;;;12.13;2.47;;;;;;;;;;5093030;28;20245;-52
2023/12/29 09:07:50;;;;;;;10.53;2.50;;;;;;;;;;5093282;28;20224;-54
2023/12/29 09:10:16;;;;;;;11.03;2.50;;;;;;;;;;5093300;28;20178;-52
2023/12/29 09:12:42;;;;;;;10.90;3.27;;;;;;;;;;5091861;28;20168;-53
2023/12/29 09:15:09;;;;;;;8.27;2.27;;;;;;;;;;5091417;28;20161;-53
2023/12/29 09:17:35;;;;;;;8.03;2.07;;;;;;;;;;5091559;28;20195;-50
2023/12/29 09:20:01;;;;;;;5.37;1.50;;;;;;;;;;5090725;28;20220;-52
2023/12/29 09:22:27;;;;;;;6.27;1.33;;;;;;;;;;5090263;28;20171;-52
2023/12/29 09:24:55;;;;;;;7.17;1.63;;;;;;;;;;5092213;28;20202;-54
2023/12/29 09:27:22;;;;;;;3.50;1.20;;;;;;;;;;5093136;28;20671;-55
2023/12/29 09:29:48;;;;;;;4.23;1.10;;;;;;;;;;5093948;28;20168;-54
2023/12/29 09:32:14;;;;;;;9.13;1.60;;;;;;;;;;5093459;28;20253;-53
2023/12/29 09:34:40;;;;;;;8.07;1.63;;;;;;;;;;5092912;28;20700;-53
2023/12/29 09:37:06;;;;;;;3.47;1.37;;;;;;;;;;5092699;28;20168;-58
2023/12/29 09:39:32;;;;;;;9.10;1.70;;;;;;;;;;5092319;28;20204;-55
2023/12/29 09:42:03;;;;;;;5.90;1.77;;;;;;;;;;5093575;28;20178;-56
2023/12/29 09:44:29;;;;;;;5.67;2.40;;;;;;;;;;5095018;28;20168;-55
2023/12/29 09:46:56;;;;;;;10.77;2.27;;;;;;;;;;5094393;28;20673;-55
2023/12/29 09:49:22;;;;;;;10.77;2.77;;;;;;;;;;5094175;28;20497;-56
2023/12/29 09:51:48;;;;;;;6.07;1.87;;;;;;;;;;5093423;28;20607;-51
2023/12/29 09:54:15;;;;;;;9.53;2.43;;;;;;;;;;5093872;28;20171;-56
2023/12/29 09:56:41;;;;;;;7.13;2.63;;;;;;;;;;5093507;28;20153;-56
2023/12/29 09:59:09;;;;;;;10.93;2.40;;;;;;;;;;5093298;28;20175;-55
2023/12/29 10:01:37;;;;;;;12.53;2.80;;;;;;;;;;5091655;28;20274;-55
2023/12/29 10:04:03;;;;;;;11.23;2.70;;;;;;;;;;5091970;28;20238;-52
2023/12/29 10:06:31;;;;;;;14.30;2.47;;;;;;;;;;5095574;28;20208;-52
2023/12/29 10:08:58;;;;;;;17.17;3.73;;;;;;;;;;5096103;28;20179;-54
2023/12/29 10:11:24;;;;;;;14.33;3.20;;;;;;;;;;5096033;28;20175;-54
2023/12/29 10:13:53;;;;;;;11.80;2.67;;;;;;;;;;5096593;28;20452;-52
2023/12/29 10:16:26;;;;;;;11.13;2.43;;;;;;;;;;5096814;28;20650;-50
2023/12/29 10:19:07;;;;;;;14.53;2.87;;;;;;;;;;5096577;28;20172;-50
2023/12/29 10:21:55;;;;;;;17.33;2.73;;;;;;;;;;5096792;28;20172;-56
2023/12/29 10:24:22;;;;;;;13.93;3.10;;;;;;;;;;5097206;28;20172;-52
2023/12/29 10:26:48;;;;;;;11.87;2.80;;;;;;;;;;5096898;28;20298;-55
2023/12/29 10:29:14;;;;;;;13.73;2.97;;;;;;;;;;5096134;28;20271;-51
2023/12/29 10:31:41;;;;;;;14.43;2.87;;;;;;;;;;5096689;28;20175;-51
2023/12/29 10:34:28;;;;;;;16.27;3.50;;;;;;;;;;5096717;28;20719;-55
2023/12/29 10:36:55;;;;;;;13.83;2.50;;;;;;;;;;5095113;28;20168;-48
2023/12/29 10:39:21;;;;;;;13.00;2.87;;;;;;;;;;5095790;28;20180;-49
2023/12/29 10:41:47;;;;;;;13.47;3.47;;;;;;;;;;5095372;28;20172;-50
2023/12/29 10:44:13;;;;;;;14.93;3.17;;;;;;;;;;5094982;28;20207;-51
2023/12/29 10:46:39;;;;;;;11.53;3.43;;;;;;;;;;5094508;28;20203;-52
2023/12/29 10:49:09;;;;;;;16.33;3.00;;;;;;;;;;5095301;28;20183;-53
2023/12/29 10:51:35;;;;;;;14.20;2.83;;;;;;;;;;5096354;28;20164;-54
2023/12/29 10:54:01;;;;;;;14.70;3.43;;;;;;;;;;5094777;28;20276;-56
2023/12/29 10:56:28;;;;;;;15.97;4.00;;;;;;;;;;5095668;28;20184;-51
2023/12/29 10:58:59;;;;;;;12.30;3.70;;;;;;;;;;5094640;28;20186;-53
2023/12/29 11:01:25;;;;;;;13.30;3.40;;;;;;;;;;5094872;28;20184;-53
2023/12/29 11:03:59;;;;;;;9.77;2.70;;;;;;;;;;5094784;28;20486;-50
2023/12/29 11:06:27;;;;;;;16.93;3.17;;;;;;;;;;5095248;28;20229;-55
2023/12/29 11:08:53;;;;;;;13.77;2.87;;;;;;;;;;5092293;28;20168;-54
2023/12/29 11:11:19;;;;;;;10.13;3.00;;;;;;;;;;5086801;28;20171;-54
2023/12/29 11:13:46;;;;;;;12.20;2.17;;;;;;;;;;5085994;28;20460;-53
2023/12/29 11:16:13;;;;;;;17.03;3.70;;;;;;;;;;5091730;28;20172;-50
2023/12/29 11:18:39;;;;;;;12.33;3.33;;;;;;;;;;5092218;28;20164;-56
2023/12/29 11:21:05;;;;;;;12.17;3.60;;;;;;;;;;5092956;28;20164;-53
2023/12/29 11:23:31;;;;;;;9.00;2.53;;;;;;;;;;5093285;28;20176;-54
2023/12/29 11:25:58;;;;;;;11.43;2.37;;;;;;;;;;5092133;28;20516;-54
2023/12/29 11:28:25;;;;;;;12.73;3.13;;;;;;;;;;5093849;28;20240;-54
2023/12/29 11:30:53;;;;;;;12.43;2.73;;;;;;;;;;5092282;28;20551;-55
2023/12/29 11:33:20;;;;;;;12.07;2.40;;;;;;;;;;5092823;28;20172;-53
2023/12/29 11:36:05;;;;;;;14.20;2.70;;;;;;;;;;5092468;28;20164;-52
2023/12/29 11:38:41;;;;;;;8.53;2.83;;;;;;;;;;5092591;28;20753;-53
2023/12/29 11:41:18;;;;;;;11.60;3.50;;;;;;;;;;5094197;28;20168;-55
2023/12/29 11:43:44;;;;;;;9.87;2.23;;;;;;;;;;5092584;28;20620;-56
2023/12/29 11:46:30;;;;;;;7.63;2.50;;;;;;;;;;5092253;28;20789;-54
2023/12/29 11:49:03;;;;;;;10.93;2.30;;;;;;;;;;5093134;28;20259;-51
2023/12/29 11:51:48;;;;;;;8.73;2.23;;;;;;;;;;5093660;28;20564;-54
2023/12/29 11:54:26;;;;;;;8.73;2.70;;;;;;;;;;5093358;28;20172;-51
2023/12/29 11:56:53;;;;;;;9.73;2.20;;;;;;;;;;5093291;28;20200;-51
2023/12/29 11:59:23;;;;;;;9.07;3.10;;;;;;;;;;5092792;28;20171;-54
2023/12/29 12:01:55;;;;;;;6.77;1.67;;;;;;;;;;5091913;28;20179;-56
2023/12/29 12:04:37;;;;;;;10.97;2.83;;;;;;;;;;5092105;28;20179;-54
2023/12/29 12:07:07;;;;;;;8.27;2.27;;;;;;;;;;5091915;28;20799;-50
2023/12/29 12:09:34;;;;;;;8.90;2.43;;;;;;;;;;5091019;28;20198;-53
2023/12/29 12:12:00;;;;;;;12.73;2.50;;;;;;;;;;5091844;28;20675;-53
2023/12/29 12:14:44;;;;;;;12.87;2.10;;;;;;;;;;5091905;28;20175;-52
2023/12/29 12:17:11;;;;;;;16.50;2.80;;;;;;;;;;5092448;28;20358;-54
2023/12/29 12:19:37;;;;;;;12.27;3.03;;;;;;;;;;5090756;28;20187;-52
2023/12/29 12:22:05;;;;;;;7.60;2.40;;;;;;;;;;5091290;28;20182;-56
2023/12/29 12:24:31;;;;;;;9.43;2.40;;;;;;;;;;5090696;28;20229;-52
2023/12/29 12:26:57;;;;;;;10.10;2.70;;;;;;;;;;5090145;28;20257;-52
2023/12/29 12:29:23;;;;;;;11.67;2.80;;;;;;;;;;5090027;28;20172;-52
2023/12/29 12:31:56;;;;;;;10.60;2.20;;;;;;;;;;5091085;28;20172;-56
2023/12/29 12:34:22;;;;;;;8.53;2.43;;;;;;;;;;5093342;28;20187;-53
2023/12/29 12:36:50;;;;;;;4.80;1.70;;;;;;;;;;5093471;28;20218;-52
2023/12/29 12:39:16;;;;;;;7.60;2.20;;;;;;;;;;5092164;28;20241;-52
2023/12/29 12:41:42;;;;;;;10.43;2.40;;;;;;;;;;5092014;28;20176;-52
2023/12/29 12:44:12;;;;;;;5.37;2.00;;;;;;;;;;5091762;28;20172;-54
2023/12/29 12:46:41;;;;;;;9.20;2.20;;;;;;;;;;5092277;28;20707;-54
2023/12/29 12:49:07;;;;;;;11.13;2.70;;;;;;;;;;5090443;28;20172;-55
2023/12/29 12:51:33;;;;;;;8.47;2.00;;;;;;;;;;5088961;28;20172;-53
2023/12/29 12:54:00;;;;;;;7.20;1.77;;;;;;;;;;5085492;28;20189;-50
2023/12/29 12:56:30;;;;;;;5.67;1.30;;;;;;;;;;5084741;28;20217;-55
2023/12/29 12:58:57;;;;;;;6.40;1.77;;;;;;;;;;5084782;28;20749;-55
2023/12/29 13:01:24;;;;;;;8.87;1.57;;;;;;;;;;5084683;28;20172;-52
2023/12/29 13:03:50;;;;;;;7.53;1.80;;;;;;;;;;5086230;28;20199;-52
2023/12/29 13:06:17;;;;;;;8.23;2.27;;;;;;;;;;5087570;28;20180;-56
2023/12/29 13:08:43;;;;;;;5.90;1.50;;;;;;;;;;5088343;28;20172;-50
2023/12/29 13:11:12;;;;;;;9.80;2.13;;;;;;;;;;5089938;28;20263;-53
2023/12/29 13:13:39;;;;;;;7.20;2.13;;;;;;;;;;5089640;28;20179;-52
2023/12/29 13:16:05;;;;;;;7.00;1.87;;;;;;;;;;5089095;28;20241;-54
2023/12/29 13:18:32;;;;;;;6.33;1.70;;;;;;;;;;5090806;28;20173;-56
2023/12/29 13:20:58;;;;;;;6.07;1.37;;;;;;;;;;5091888;28;20229;-52
2023/12/29 13:23:28;;;;;;;5.93;1.87;;;;;;;;;;5090307;28;20171;-54
2023/12/29 13:25:58;;;;;;;5.07;1.90;;;;;;;;;;5090430;28;20211;-56
2023/12/29 13:28:24;;;;;;;7.23;1.87;;;;;;;;;;5090676;28;20172;-56
2023/12/29 13:30:50;;;;;;;3.00;1.30;;;;;;;;;;5091101;28;20536;-54
2023/12/29 13:33:20;;;;;;;8.37;2.17;;;;;;;;;;5091778;28;20179;-52
2023/12/29 13:35:50;;;;;;;5.07;1.80;;;;;;;;;;5092089;28;20481;-54
2023/12/29 13:38:21;;;;;;;5.07;1.80;;;;;;;;;;5091884;28;20185;-55
2023/12/29 13:40:54;;;;;;;6.47;2.07;;;;;;;;;;5095314;28;20224;-53
2023/12/29 13:43:22;;;;;;;8.00;2.80;;;;;;;;;;5094366;28;20203;-53
2023/12/29 13:45:48;;;;;;;5.23;1.47;;;;;;;;;;5095625;28;20182;-53
2023/12/29 13:48:14;;;;;;;7.20;2.07;;;;;;;;;;5095695;28;20171;-55
2023/12/29 13:50:41;;;;;;;6.30;1.80;;;;;;;;;;5095805;28;20175;-51
2023/12/29 13:53:07;;;;;;;4.87;1.60;;;;;;;;;;5090932;28;20582;-55
2023/12/29 13:55:33;;;;;;;6.83;1.73;;;;;;;;;;5089838;28;20215;-56
2023/12/29 13:57:59;;;;;;;8.10;2.03;;;;;;;;;;5091589;28;20180;-55
2023/12/29 14:00:28;;;;;;;8.10;2.20;;;;;;;;;;5089103;28;20172;-56
2023/12/29 14:02:55;;;;;;;7.60;2.10;;;;;;;;;;5088137;28;20202;-53
2023/12/29 14:05:24;;;;;;;9.40;2.23;;;;;;;;;;5088607;28;20197;-54
2023/12/29 14:07:55;;;;;;;4.93;1.90;;;;;;;;;;5086396;28;20226;-55
2023/12/29 14:10:21;;;;;;;10.87;2.70;;;;;;;;;;5085581;28;20255;-55
2023/12/29 14:12:48;;;;;;;15.53;3.13;;;;;;;;;;5084256;28;20262;-54
2023/12/29 14:15:15;;;;;;;9.00;2.73;;;;;;;;;;5089415;28;20206;-55
2023/12/29 14:17:41;;;;;;;11.60;3.50;;;;;;;;;;5093472;28;20258;-56
2023/12/29 14:20:07;;;;;;;9.87;2.70;;;;;;;;;;5091853;28;20517;-55
2023/12/29 14:22:34;;;;;;;13.93;3.10;;;;;;;;;;5092983;28;20199;-53
2023/12/29 14:25:02;;;;;;;12.13;3.90;;;;;;;;;;5094177;28;20168;-54
2023/12/29 14:27:28;;;;;;;15.10;2.93;;;;;;;;;;5092853;28;20204;-54
2023/12/29 14:29:54;;;;;;;14.73;3.20;;;;;;;;;;5090025;28;20214;-55
2023/12/29 14:32:20;;;;;;;9.73;2.63;;;;;;;;;;5090135;28;20207;-54
2023/12/29 14:34:52;;;;;;;19.53;3.03;;;;;;;;;;5092840;28;20176;-54
2023/12/29 14:37:19;;;;;;;10.90;2.47;;;;;;;;;;5093463;28;20168;-49